This is the latest recevied weather packets stored in our database for station/object OK1FCB-1. If no packets are shown the sender has not sent any weather packets the latest 10 day(s).
| Time | Temp. | Humidity | Pressure | Rain* | Wind** | Luminosity | Snow |
|---|---|---|---|---|---|---|---|
| 1777551842 | 24.44° C | 22% | 1033.6 hPa | - | - | - | - |
| 1777550944 | 24.44° C | 22% | 1033.7 hPa | - | - | - | - |
| 1777550052 | 24.44° C | 22% | 1033.7 hPa | - | - | - | - |
| 1777544654 | 21.67° C | 24% | 1034.9 hPa | - | - | - | - |
| 1777542854 | 19.44° C | 26% | 1035.1 hPa | - | - | - | - |
| 1777539267 | 18.89° C | 28% | 1035.7 hPa | - | - | - | - |
| 1777539262 | 18.89° C | 28% | 1035.7 hPa | - | - | - | - |
| 1777538369 | 18.33° C | 28% | 1035.8 hPa | - | - | - | - |
| 1777538363 | 18.33° C | 28% | 1035.8 hPa | - | - | - | - |
| 1777537470 | 18.33° C | 29% | 1035.9 hPa | - | - | - | - |
| 1777535674 | 16.67° C | 30% | 1035.9 hPa | - | - | - | - |
| 1777533872 | 16.67° C | 31% | 1036.1 hPa | - | - | - | - |
| 1777532079 | 14.44° C | 35% | 1036.3 hPa | - | - | - | - |
| 1777530275 | 10.56° C | 40% | 1036.4 hPa | - | - | - | - |
| 1777527585 | 8.33° C | 46% | 1036.1 hPa | - | - | - | - |
| 1777523082 | -2.22° C | 60% | 1035.9 hPa | - | - | - | - |
| 1777522184 | -2.78° C | 62% | 1035.9 hPa | - | - | - | - |
| 1777520387 | -3.33° C | 61% | 1035.8 hPa | - | - | - | - |
| 1777519490 | -3.33° C | 62% | 1035.6 hPa | - | - | - | - |
| 1777518586 | -3.89° C | 64% | 1035.4 hPa | - | - | - | - |
| 1777515002 | -3.89° C | 62% | 1035.5 hPa | - | - | - | - |
| 1777512309 | -3.33° C | 60% | 1035.3 hPa | - | - | - | - |
| 1777512303 | -3.33° C | 60% | 1035.3 hPa | - | - | - | - |
| 1777510515 | -2.78° C | 56% | 1035.2 hPa | - | - | - | - |
| 1777509617 | -2.22° C | 54% | 1035.2 hPa | - | - | - | - |
* Rain since midnight (hover to see other rain measurements)
** Current wind speed in m/s (hover to see current wind gust speed)